Time;durP1;ratioP1;P1;durP2;ratioP2;P2;SDS_P1;SDS_P2;PMS_P1;PMS_P2;Temp;Humidity;BMP_temperature;BMP_pressure;BME280_temperature;BME280_humidity;BME280_pressure;Samples;Min_cycle;Max_cycle;Signal;HPM_P1;HPM_P2
2023/02/04 00:02:20;;;;;;;48.95;6.15;;;;;;;7.34;100.00;103362.22;5026962;28;20029;-43
2023/02/04 00:04:45;;;;;;;45.08;7.47;;;;;;;7.36;100.00;103360.31;5011939;28;20476;-43
2023/02/04 00:07:11;;;;;;;37.05;6.22;;;;;;;7.37;100.00;103362.03;5027938;28;20540;-44
2023/02/04 00:09:36;;;;;;;51.67;7.75;;;;;;;7.38;100.00;103366.44;5030211;28;20457;-44
2023/02/04 00:12:01;;;;;;;44.28;6.75;;;;;;;7.37;100.00;103359.34;5029606;28;20447;-43
2023/02/04 00:14:27;;;;;;;32.75;5.45;;;;;;;7.37;100.00;103365.59;5011502;28;20116;-44
2023/02/04 00:16:52;;;;;;;43.25;6.55;;;;;;;7.37;100.00;103364.72;5022532;28;20107;-45
2023/02/04 00:19:17;;;;;;;35.92;7.35;;;;;;;7.38;100.00;103358.41;5029563;28;20141;-45
2023/02/04 00:21:43;;;;;;;32.92;6.82;;;;;;;7.38;100.00;103371.81;5031115;28;20468;-43
2023/02/04 00:24:08;;;;;;;37.17;4.82;;;;;;;7.39;100.00;103373.53;5015992;28;20034;-44
2023/02/04 00:26:34;;;;;;;38.13;4.97;;;;;;;7.39;100.00;103368.16;5016636;28;20314;-43
2023/02/04 00:28:59;;;;;;;34.30;5.32;;;;;;;7.39;100.00;103357.44;5030118;28;20413;-43
2023/02/04 00:31:24;;;;;;;42.03;5.38;;;;;;;7.41;100.00;103360.88;5026081;28;20504;-41
2023/02/04 00:33:50;;;;;;;25.50;4.75;;;;;;;7.42;100.00;103362.59;5029956;28;20456;-44
2023/02/04 00:36:15;;;;;;;32.15;5.20;;;;;;;7.45;100.00;103365.06;5030535;28;20050;-44
2023/02/04 00:38:40;;;;;;;33.08;5.38;;;;;;;7.43;100.00;103362.50;5030975;28;20025;-43
2023/02/04 00:41:06;;;;;;;30.02;5.00;;;;;;;7.45;100.00;103363.28;5025447;28;20044;-45
2023/02/04 00:43:31;;;;;;;28.60;4.60;;;;;;;7.48;100.00;103373.78;5028959;28;20037;-43
2023/02/04 00:45:56;;;;;;;39.50;5.43;;;;;;;7.48;100.00;103364.91;5030562;28;20644;-44
2023/02/04 00:48:22;;;;;;;28.55;4.50;;;;;;;7.52;100.00;103369.09;5030408;28;20037;-42
2023/02/04 00:50:47;;;;;;;24.98;4.70;;;;;;;7.51;100.00;103371.88;5030264;28;20119;-42
2023/02/04 00:53:13;;;;;;;32.53;4.93;;;;;;;7.51;100.00;103372.72;5019293;28;20108;-42
2023/02/04 00:55:38;;;;;;;36.25;4.88;;;;;;;7.48;100.00;103380.97;5013520;28;20030;-42
2023/02/04 00:58:03;;;;;;;32.88;4.53;;;;;;;7.45;100.00;103378.47;5027070;28;20103;-43
2023/02/04 01:00:29;;;;;;;30.80;4.10;;;;;;;7.45;100.00;103379.34;5030899;28;20033;-44
2023/02/04 01:02:54;;;;;;;31.42;4.07;;;;;;;7.48;100.00;103383.66;5030116;28;20227;-45
2023/02/04 01:05:19;;;;;;;29.85;4.35;;;;;;;7.46;100.00;103386.41;5029139;28;20025;-43
2023/02/04 01:07:45;;;;;;;37.25;4.70;;;;;;;7.46;100.00;103385.56;5017209;28;20037;-44
2023/02/04 01:10:10;;;;;;;36.40;5.20;;;;;;;7.46;100.00;103380.22;5013864;28;20700;-44
2023/02/04 01:12:36;;;;;;;39.10;4.53;;;;;;;7.45;100.00;103383.81;5021506;28;20034;-45
2023/02/04 01:15:01;;;;;;;37.03;3.97;;;;;;;7.44;100.00;103392.84;5011044;28;20069;-42
2023/02/04 01:17:26;;;;;;;51.65;4.25;;;;;;;7.41;100.00;103385.84;5010488;28;20056;-44
2023/02/04 01:19:53;;;;;;;35.13;4.05;;;;;;;7.39;100.00;103384.22;5012936;28;20052;-44
2023/02/04 01:22:18;;;;;;;47.38;5.25;;;;;;;7.40;100.00;103384.16;5027774;28;20079;-42
2023/02/04 01:24:43;;;;;;;34.25;4.00;;;;;;;7.38;100.00;103388.75;5028941;28;20025;-44
2023/02/04 01:27:09;;;;;;;22.65;3.90;;;;;;;7.38;100.00;103383.38;5012758;28;20033;-44
2023/02/04 01:29:34;;;;;;;47.55;4.75;;;;;;;7.36;100.00;103389.78;5010589;28;20053;-44
2023/02/04 01:31:59;;;;;;;36.35;3.85;;;;;;;7.36;100.00;103384.44;5024336;28;20038;-44
2023/02/04 01:34:25;;;;;;;40.80;3.88;;;;;;;7.36;100.00;103395.16;5028238;28;20431;-43
2023/02/04 01:36:50;;;;;;;31.20;4.03;;;;;;;7.37;100.00;103391.50;5015718;28;20041;-44
2023/02/04 01:39:16;;;;;;;36.15;3.53;;;;;;;7.37;100.00;103394.19;5011542;28;20374;-42
2023/02/04 01:41:41;;;;;;;35.35;3.67;;;;;;;7.38;100.00;103393.25;5021411;28;20046;-43
2023/02/04 01:44:07;;;;;;;36.17;3.83;;;;;;;7.35;100.00;103390.75;5028778;28;20507;-44
2023/02/04 01:46:36;;;;;;;39.05;3.45;;;;;;;7.44;100.00;103398.19;5024316;28;20029;-43
2023/02/04 01:49:03;;;;;;;36.72;4.68;;;;;;;7.37;100.00;103397.75;5028367;28;20025;-43
2023/02/04 01:51:30;;;;;;;43.83;4.15;;;;;;;7.32;100.00;103398.97;5027509;28;20056;-43
2023/02/04 01:53:56;;;;;;;36.25;4.93;;;;;;;7.37;100.00;103412.94;5025682;28;20034;-44
2023/02/04 01:56:25;;;;;;;37.08;3.90;;;;;;;7.32;100.00;103407.00;5023013;28;20075;-43
2023/02/04 01:58:50;;;;;;;30.67;3.35;;;;;;;7.34;100.00;103402.41;5028510;28;20373;-43
2023/02/04 02:01:37;;;;;;;43.55;5.57;;;;;;;7.34;100.00;103414.00;5029494;28;20425;-42
2023/02/04 02:04:04;;;;;;;37.33;3.60;;;;;;;7.32;100.00;103410.56;5013595;28;20143;-42
2023/02/04 02:06:30;;;;;;;37.55;3.90;;;;;;;7.32;100.00;103409.69;5019759;28;20083;-43
2023/02/04 02:08:57;;;;;;;41.92;3.65;;;;;;;7.32;100.00;103399.84;5029113;28;20060;-44
2023/02/04 02:11:23;;;;;;;33.47;2.80;;;;;;;7.31;100.00;103411.50;5022722;28;20113;-44
2023/02/04 02:13:48;;;;;;;38.20;3.13;;;;;;;7.32;100.00;103409.69;5010108;28;20485;-44
2023/02/04 02:16:13;;;;;;;35.05;3.42;;;;;;;7.33;100.00;103406.91;5017863;28;20036;-44
2023/02/04 02:18:39;;;;;;;28.60;3.17;;;;;;;7.35;100.00;103404.16;5029618;28;20030;-42
2023/02/04 02:21:08;;;;;;;35.65;2.97;;;;;;;7.36;100.00;103411.22;5025849;28;20524;-44
2023/02/04 02:23:50;;;;;;;37.83;3.45;;;;;;;7.40;100.00;103412.78;5019217;28;20503;-44
2023/02/04 02:26:17;;;;;;;23.05;2.85;;;;;;;7.44;100.00;103415.13;5019387;28;20080;-43
2023/02/04 02:28:43;;;;;;;28.58;2.92;;;;;;;7.50;100.00;103426.41;4995562;28;20083;-42
2023/02/04 02:31:09;;;;;;;54.70;4.95;;;;;;;7.47;100.00;103422.09;5014331;28;20029;-43
2023/02/04 02:33:34;;;;;;;40.50;5.53;;;;;;;7.47;100.00;103435.50;5027879;28;20045;-43
2023/02/04 02:36:00;;;;;;;38.00;3.65;;;;;;;7.46;100.00;103433.81;5027793;28;20495;-43
2023/02/04 02:38:25;;;;;;;28.25;3.38;;;;;;;7.50;100.00;103445.16;5029259;28;20030;-43
2023/02/04 02:40:51;;;;;;;43.45;5.05;;;;;;;7.49;100.00;103444.31;5028063;28;20029;-44
2023/02/04 02:43:19;;;;;;;46.33;4.38;;;;;;;7.47;100.00;103440.88;5030422;28;20163;-44
2023/02/04 02:45:45;;;;;;;48.15;4.55;;;;;;;7.46;100.00;103444.50;5032664;28;20489;-44
2023/02/04 02:48:10;;;;;;;42.72;4.13;;;;;;;7.46;100.00;103437.34;5032933;28;20060;-42
2023/02/04 02:50:36;;;;;;;26.98;3.10;;;;;;;7.48;100.00;103445.28;5030943;28;20093;-44
2023/02/04 02:53:03;;;;;;;28.88;4.32;;;;;;;7.46;100.00;103444.50;5028064;28;20041;-43
2023/02/04 02:55:28;;;;;;;34.30;3.42;;;;;;;7.45;100.00;103442.78;5030739;28;20462;-42
2023/02/04 02:57:55;;;;;;;31.70;3.10;;;;;;;7.44;100.00;103438.38;5013411;28;20108;-43
2023/02/04 03:00:25;;;;;;;34.63;4.30;;;;;;;7.43;100.00;103448.25;5013632;28;20465;-44
2023/02/04 03:03:21;;;;;;;38.40;4.45;;;;;;;7.46;100.00;103449.88;5022962;28;20030;-43
2023/02/04 03:05:50;;;;;;;37.85;3.97;;;;;;;7.45;100.00;103442.78;5030625;28;20052;-43
2023/02/04 03:08:16;;;;;;;34.88;3.78;;;;;;;7.46;100.00;103448.06;5032858;28;20473;-44
2023/02/04 03:10:42;;;;;;;43.50;4.47;;;;;;;7.55;100.00;103438.56;5032507;28;20103;-44
2023/02/04 03:13:08;;;;;;;28.10;3.55;;;;;;;7.52;100.00;103444.13;5024257;28;20246;-43
2023/02/04 03:15:33;;;;;;;37.33;3.53;;;;;;;7.58;100.00;103441.06;5027066;28;20400;-44
2023/02/04 03:17:59;;;;;;;40.65;4.30;;;;;;;7.56;100.00;103439.44;5031182;28;20404;-43
2023/02/04 03:20:26;;;;;;;33.70;3.88;;;;;;;7.58;100.00;103441.06;5032802;28;20471;-44
2023/02/04 03:22:52;;;;;;;40.25;3.65;;;;;;;7.56;100.00;103440.28;5025600;28;20022;-45
2023/02/04 03:25:19;;;;;;;42.13;4.22;;;;;;;7.50;100.00;103440.66;5025307;28;20048;-43
2023/02/04 03:27:45;;;;;;;34.95;4.05;;;;;;;7.55;100.00;103443.91;5031382;28;20539;-43
2023/02/04 03:30:10;;;;;;;35.70;4.07;;;;;;;7.60;100.00;103435.59;5030870;28;20017;-44
2023/02/04 03:32:35;;;;;;;43.47;4.38;;;;;;;7.68;100.00;103431.44;5030089;28;20496;-43
2023/02/04 03:35:02;;;;;;;45.38;5.15;;;;;;;7.64;100.00;103432.63;5032079;28;20053;-44
2023/02/04 03:37:27;;;;;;;42.50;5.32;;;;;;;7.65;100.00;103434.31;5016197;28;20490;-44
2023/02/04 03:39:53;;;;;;;43.28;4.85;;;;;;;7.63;100.00;103430.03;5012334;28;20330;-44
2023/02/04 03:42:18;;;;;;;55.63;4.60;;;;;;;7.60;100.00;103420.34;5017422;28;20118;-47
2023/02/04 03:44:43;;;;;;;54.42;4.53;;;;;;;7.61;100.00;103423.91;5028299;28;20117;-43
2023/02/04 03:47:09;;;;;;;39.55;4.78;;;;;;;7.55;100.00;103422.47;5012362;28;20053;-43
2023/02/04 03:49:35;;;;;;;47.22;3.88;;;;;;;7.56;100.00;103418.00;5012050;28;20026;-43
2023/02/04 03:52:00;;;;;;;36.60;3.97;;;;;;;7.53;100.00;103418.16;5025362;28;20029;-43
2023/02/04 03:54:26;;;;;;;38.95;5.35;;;;;;;7.49;100.00;103412.16;5012116;28;20037;-43
2023/02/04 03:56:51;;;;;;;37.15;4.50;;;;;;;7.43;100.00;103412.56;5015824;28;20049;-44
2023/02/04 03:59:17;;;;;;;48.25;5.03;;;;;;;7.40;100.00;103428.84;5031380;28;20021;-44
2023/02/04 04:01:42;;;;;;;50.20;5.65;;;;;;;7.35;100.00;103433.63;5031337;28;20128;-44
2023/02/04 04:04:07;;;;;;;43.40;4.43;;;;;;;7.33;100.00;103432.84;5014727;28;20462;-44
2023/02/04 04:06:32;;;;;;;47.25;4.90;;;;;;;7.32;100.00;103439.16;5011770;28;20536;-44
2023/02/04 04:08:58;;;;;;;39.90;5.72;;;;;;;7.33;100.00;103443.56;5011811;28;20495;-43
2023/02/04 04:11:23;;;;;;;49.08;5.47;;;;;;;7.33;100.00;103446.25;5011325;28;20053;-44
2023/02/04 04:13:48;;;;;;;62.88;5.72;;;;;;;7.33;100.00;103448.94;5014117;28;20061;-44
2023/02/04 04:16:14;;;;;;;53.85;6.00;;;;;;;7.32;100.00;103457.91;5011776;28;20075;-44
2023/02/04 04:18:39;;;;;;;45.45;4.68;;;;;;;7.32;100.00;103452.56;5030436;28;20064;-46
2023/02/04 04:21:04;;;;;;;48.45;5.45;;;;;;;7.32;100.00;103457.91;5031329;28;20024;-44
2023/02/04 04:23:30;;;;;;;38.22;5.13;;;;;;;7.33;100.00;103463.19;5024933;28;20167;-44
2023/02/04 04:25:55;;;;;;;52.20;4.57;;;;;;;7.35;100.00;103479.16;5030944;28;20116;-44
2023/02/04 04:28:21;;;;;;;45.45;4.13;;;;;;;7.36;100.00;103480.88;5031398;28;20108;-44
2023/02/04 04:30:46;;;;;;;50.90;4.80;;;;;;;7.36;100.00;103481.75;5030223;28;20121;-45
2023/02/04 04:33:11;;;;;;;44.17;5.00;;;;;;;7.38;100.00;103473.63;5024637;28;20140;-44
2023/02/04 04:35:37;;;;;;;47.67;5.68;;;;;;;7.38;100.00;103474.47;5029665;28;20432;-45
2023/02/04 04:38:02;;;;;;;38.45;4.95;;;;;;;7.38;100.00;103481.66;5031006;28;20491;-45
2023/02/04 04:40:29;;;;;;;44.95;4.65;;;;;;;7.37;100.00;103486.16;5030842;28;20025;-46
2023/02/04 04:42:54;;;;;;;43.25;4.90;;;;;;;7.33;100.00;103486.44;5028894;28;20056;-44
2023/02/04 04:45:20;;;;;;;54.63;4.85;;;;;;;7.34;100.00;103493.50;5011377;28;20085;-44
2023/02/04 04:47:46;;;;;;;49.13;4.53;;;;;;;7.36;100.00;103505.00;5011021;28;20026;-45
2023/02/04 04:50:12;;;;;;;46.45;5.20;;;;;;;7.34;100.00;103505.06;5013620;28;20040;-44
2023/02/04 04:52:37;;;;;;;41.58;5.18;;;;;;;7.36;100.00;103491.59;5020249;28;20032;-44
2023/02/04 04:55:03;;;;;;;58.60;6.72;;;;;;;7.36;100.00;103499.63;5011053;28;20552;-43
2023/02/04 04:57:28;;;;;;;56.17;6.40;;;;;;;7.34;100.00;103496.19;5016017;28;20025;-43
2023/02/04 04:59:54;;;;;;;45.92;5.75;;;;;;;7.37;100.00;103496.00;5019167;28;20112;-43
2023/02/04 05:02:19;;;;;;;42.80;5.55;;;;;;;7.39;100.00;103494.09;5024077;28;20021;-43
2023/02/04 05:04:44;;;;;;;68.32;6.70;;;;;;;7.42;100.00;103496.56;5009352;28;20041;-43
2023/02/04 05:07:10;;;;;;;51.58;5.68;;;;;;;7.41;100.00;103494.84;5011129;28;20055;-43
2023/02/04 05:09:35;;;;;;;54.15;6.43;;;;;;;7.41;100.00;103505.56;5012753;28;20495;-42
2023/02/04 05:12:01;;;;;;;55.13;5.30;;;;;;;7.42;100.00;103499.25;5029334;28;20103;-45
2023/02/04 05:14:27;;;;;;;54.83;5.95;;;;;;;7.40;100.00;103495.81;5027249;28;20026;-44
2023/02/04 05:16:52;;;;;;;46.60;6.40;;;;;;;7.40;100.00;103501.19;5028943;28;20080;-42
2023/02/04 05:19:17;;;;;;;50.45;5.38;;;;;;;7.40;100.00;103504.72;5028831;28;20056;-44
2023/02/04 05:21:43;;;;;;;49.65;4.90;;;;;;;7.41;100.00;103503.75;5010808;28;20117;-44
2023/02/04 05:24:08;;;;;;;52.15;5.43;;;;;;;7.44;100.00;103500.00;5010659;28;20161;-45
2023/02/04 05:26:33;;;;;;;56.65;5.68;;;;;;;7.43;100.00;103500.97;5012027;28;20030;-44
2023/02/04 05:28:59;;;;;;;56.38;5.88;;;;;;;7.42;100.00;103496.56;5010307;28;20123;-44
2023/02/04 05:31:24;;;;;;;56.13;6.05;;;;;;;7.44;100.00;103502.69;5026156;28;20033;-43
2023/02/04 05:33:50;;;;;;;46.78;5.38;;;;;;;7.44;100.00;103508.06;5013355;28;20498;-44
2023/02/04 05:36:16;;;;;;;36.53;4.53;;;;;;;7.45;100.00;103512.44;5010560;28;20050;-44
2023/02/04 05:38:42;;;;;;;49.42;5.25;;;;;;;7.43;100.00;103506.34;5010463;28;20481;-44
2023/02/04 05:41:07;;;;;;;46.17;5.43;;;;;;;7.41;100.00;103514.47;5019357;28;20026;-43
2023/02/04 05:43:32;;;;;;;52.75;6.50;;;;;;;7.43;100.00;103517.06;5012311;28;20033;-43
2023/02/04 05:45:58;;;;;;;37.75;4.82;;;;;;;7.44;100.00;103524.13;5030717;28;20041;-45
2023/02/04 05:48:23;;;;;;;51.03;5.65;;;;;;;7.45;100.00;103520.47;5025298;28;20025;-44
2023/02/04 05:50:48;;;;;;;58.88;6.40;;;;;;;7.44;100.00;103527.66;5020886;28;20089;-44
2023/02/04 05:53:13;;;;;;;51.08;6.40;;;;;;;7.47;100.00;103518.56;5015181;28;20392;-45
2023/02/04 05:55:39;;;;;;;40.13;5.63;;;;;;;7.48;100.00;103528.34;5015937;28;20035;-45
2023/02/04 05:58:04;;;;;;;47.65;5.55;;;;;;;7.48;100.00;103533.72;5027896;28;20041;-45
2023/02/04 06:00:29;;;;;;;72.45;6.82;;;;;;;7.45;100.00;103536.56;5026602;28;20049;-44
2023/02/04 06:02:55;;;;;;;46.00;5.85;;;;;;;7.45;100.00;103539.25;5034335;28;20022;-43
2023/02/04 06:05:21;;;;;;;42.53;5.57;;;;;;;7.44;100.00;103535.69;5027457;28;20033;-43
2023/02/04 06:07:47;;;;;;;52.38;7.18;;;;;;;7.45;100.00;103541.91;5018736;28;20468;-43
2023/02/04 06:10:12;;;;;;;52.08;5.53;;;;;;;7.43;100.00;103541.19;5027685;28;20036;-45
2023/02/04 06:12:38;;;;;;;51.72;5.53;;;;;;;7.43;100.00;103546.53;5028374;28;20530;-44
2023/02/04 06:15:03;;;;;;;52.38;5.20;;;;;;;7.41;100.00;103543.09;5023896;28;20358;-43
2023/02/04 06:17:29;;;;;;;37.65;5.10;;;;;;;7.38;100.00;103543.28;5024015;28;20151;-43
2023/02/04 06:19:54;;;;;;;44.30;5.70;;;;;;;7.37;100.00;103546.91;5030508;28;20053;-43
2023/02/04 06:22:20;;;;;;;49.33;5.88;;;;;;;7.40;100.00;103546.72;5019201;28;20088;-43
2023/02/04 06:24:45;;;;;;;47.63;7.03;;;;;;;7.41;100.00;103548.44;5025136;28;20026;-43
2023/02/04 06:27:10;;;;;;;45.70;6.40;;;;;;;7.44;100.00;103559.81;5028878;28;20033;-43
2023/02/04 06:29:36;;;;;;;47.55;6.55;;;;;;;7.45;100.00;103558.00;5033680;28;20048;-43
2023/02/04 06:32:01;;;;;;;43.50;6.32;;;;;;;7.47;100.00;103561.44;5033199;28;20041;-43
2023/02/04 06:34:26;;;;;;;57.28;6.65;;;;;;;7.45;100.00;103566.03;5029380;28;20120;-43
2023/02/04 06:36:52;;;;;;;46.72;6.22;;;;;;;7.45;100.00;103571.41;5015612;28;20025;-43
2023/02/04 06:39:17;;;;;;;49.38;6.95;;;;;;;7.47;100.00;103566.81;5035941;28;20028;-44
2023/02/04 06:41:42;;;;;;;67.45;7.65;;;;;;;7.45;100.00;103571.41;5020846;28;20144;-43
2023/02/04 06:44:07;;;;;;;43.65;7.30;;;;;;;7.45;100.00;103576.75;5017622;28;20056;-43
2023/02/04 06:46:33;;;;;;;62.47;8.45;;;;;;;7.44;100.00;103575.03;5024790;28;20457;-44
2023/02/04 06:48:58;;;;;;;46.05;8.68;;;;;;;7.45;100.00;103561.56;5031208;28;20026;-43
2023/02/04 06:51:24;;;;;;;72.95;10.02;;;;;;;7.46;100.00;103565.09;5033496;28;20029;-43
2023/02/04 06:53:49;;;;;;;54.47;10.07;;;;;;;7.46;100.00;103562.41;5033114;28;20030;-43
2023/02/04 06:56:14;;;;;;;49.85;10.40;;;;;;;7.45;100.00;103566.91;5033462;28;20029;-43
2023/02/04 06:58:40;;;;;;;50.33;10.85;;;;;;;7.44;100.00;103575.91;5032263;28;20029;-44
2023/02/04 07:01:05;;;;;;;55.25;9.80;;;;;;;7.46;100.00;103574.00;5033466;28;20025;-43
2023/02/04 07:03:31;;;;;;;44.47;11.25;;;;;;;7.46;100.00;103575.81;5032509;28;20140;-44
2023/02/04 07:05:56;;;;;;;60.75;12.90;;;;;;;7.45;100.00;103580.31;5033222;28;20033;-43
2023/02/04 07:08:21;;;;;;;60.45;11.57;;;;;;;7.47;100.00;103581.06;5033214;28;20090;-43
2023/02/04 07:10:47;;;;;;;57.63;11.70;;;;;;;7.51;100.00;103589.78;5040357;28;20136;-43
2023/02/04 07:13:12;;;;;;;62.63;12.68;;;;;;;7.54;100.00;103596.78;5052726;28;20033;-44
2023/02/04 07:15:38;;;;;;;67.75;12.52;;;;;;;7.53;100.00;103589.69;5018312;28;20034;-44
2023/02/04 07:18:03;;;;;;;52.75;11.35;;;;;;;7.54;100.00;103594.09;5015810;28;20557;-44
2023/02/04 07:20:28;;;;;;;58.15;11.57;;;;;;;7.54;100.00;103586.91;5026150;28;20096;-45
2023/02/04 07:22:53;;;;;;;66.28;12.52;;;;;;;7.55;100.00;103593.13;5027631;28;20029;-44
2023/02/04 07:25:19;;;;;;;43.67;11.57;;;;;;;7.57;100.00;103599.28;5024229;28;20049;-44
2023/02/04 07:27:44;;;;;;;54.17;12.20;;;;;;;7.60;100.00;103602.63;5026580;28;20068;-43
2023/02/04 07:30:10;;;;;;;52.53;10.48;;;;;;;7.67;100.00;103603.09;5018003;28;20057;-44
2023/02/04 07:32:35;;;;;;;59.92;11.88;;;;;;;7.69;100.00;103606.56;5021027;28;20053;-43
2023/02/04 07:35:01;;;;;;;54.55;11.85;;;;;;;7.75;100.00;103613.34;5028633;28;20034;-44
2023/02/04 07:37:26;;;;;;;52.53;11.52;;;;;;;7.74;100.00;103614.28;5030548;28;20087;-46
2023/02/04 07:39:51;;;;;;;53.70;11.48;;;;;;;7.68;100.00;103621.75;5028982;28;20037;-43
2023/02/04 07:42:17;;;;;;;49.67;11.80;;;;;;;7.66;100.00;103623.69;5028328;28;20033;-43
2023/02/04 07:44:42;;;;;;;52.80;12.27;;;;;;;7.68;100.00;103624.44;5026645;28;20029;-43
2023/02/04 07:47:07;;;;;;;61.90;11.35;;;;;;;7.70;100.00;103614.50;5026363;28;20025;-42
2023/02/04 07:49:33;;;;;;;49.38;11.18;;;;;;;7.70;100.00;103619.00;5019891;28;20121;-44
2023/02/04 07:51:58;;;;;;;50.97;11.15;;;;;;;7.66;100.00;103618.34;5017506;28;20112;-43
2023/02/04 07:54:23;;;;;;;49.35;11.55;;;;;;;7.67;100.00;103614.69;5014663;28;20128;-43
2023/02/04 07:56:49;;;;;;;58.50;12.27;;;;;;;7.67;100.00;103614.69;5012290;28;20385;-44
2023/02/04 07:59:14;;;;;;;51.47;11.95;;;;;;;7.65;100.00;103613.06;5012085;28;20049;-44
2023/02/04 08:01:39;;;;;;;64.93;11.30;;;;;;;7.65;100.00;103615.75;5012098;28;20038;-44
2023/02/04 08:04:05;;;;;;;58.28;12.52;;;;;;;7.68;100.00;103621.75;5012205;28;20459;-43
2023/02/04 08:06:30;;;;;;;59.95;11.93;;;;;;;7.72;100.00;103627.81;5012412;28;20480;-43
2023/02/04 08:08:55;;;;;;;61.17;12.75;;;;;;;7.72;100.00;103627.81;5012409;28;20148;-43
2023/02/04 08:11:21;;;;;;;60.25;12.63;;;;;;;7.73;100.00;103628.66;5012306;28;20025;-43
2023/02/04 08:13:46;;;;;;;56.03;13.82;;;;;;;7.70;100.00;103630.56;5012447;28;20121;-43
2023/02/04 08:16:11;;;;;;;57.53;12.55;;;;;;;7.72;100.00;103637.69;5027165;28;20120;-42
2023/02/04 08:18:37;;;;;;;51.55;12.95;;;;;;;7.75;100.00;103632.13;5011826;28;20018;-43
2023/02/04 08:21:03;;;;;;;50.17;12.63;;;;;;;7.76;100.00;103631.16;5011647;28;20038;-44
2023/02/04 08:23:29;;;;;;;60.85;13.52;;;;;;;7.78;100.00;103629.25;5011656;28;20026;-43
2023/02/04 08:25:54;;;;;;;60.50;14.07;;;;;;;7.81;100.00;103642.47;5010103;28;20037;-43
2023/02/04 08:28:19;;;;;;;67.38;14.32;;;;;;;7.88;100.00;103635.75;5011809;28;20076;-43
2023/02/04 08:30:45;;;;;;;57.05;11.63;;;;;;;7.92;100.00;103639.97;5011480;28;20022;-43
2023/02/04 08:33:10;;;;;;;50.28;11.02;;;;;;;8.06;100.00;103642.66;5011452;28;20054;-43
2023/02/04 08:35:35;;;;;;;46.40;11.07;;;;;;;8.08;100.00;103642.53;5011554;28;20030;-42
2023/02/04 08:38:01;;;;;;;56.63;10.90;;;;;;;8.14;100.00;103653.75;5011615;28;20026;-43
2023/02/04 08:40:26;;;;;;;56.83;11.48;;;;;;;8.16;100.00;103652.78;5009289;28;20341;-43
2023/02/04 08:42:52;;;;;;;56.40;10.85;;;;;;;8.21;100.00;103656.91;5011386;28;20026;-44
2023/02/04 08:45:17;;;;;;;53.95;11.95;;;;;;;8.27;100.00;103651.16;5011398;28;20491;-43
2023/02/04 08:47:42;;;;;;;50.22;12.57;;;;;;;8.33;100.00;103655.28;5011759;28;20132;-43
2023/02/04 08:50:09;;;;;;;51.95;11.40;;;;;;;8.37;100.00;103659.47;5011675;28;20425;-43
2023/02/04 08:52:35;;;;;;;53.72;12.43;;;;;;;8.39;100.00;103660.28;5011452;28;20037;-43
2023/02/04 08:55:01;;;;;;;44.78;11.88;;;;;;;8.46;100.00;103666.13;5011197;28;20462;-43
2023/02/04 08:57:26;;;;;;;50.80;13.60;;;;;;;8.50;100.00;103663.13;5011295;28;20041;-44
2023/02/04 08:59:51;;;;;;;56.53;12.35;;;;;;;8.53;100.00;103662.06;5011025;28;20041;-44
2023/02/04 09:02:17;;;;;;;57.72;11.77;;;;;;;8.56;100.00;103662.75;5011160;28;20026;-44
2023/02/04 09:04:42;;;;;;;49.28;11.88;;;;;;;8.49;100.00;103658.72;5011220;28;20104;-44
2023/02/04 09:07:08;;;;;;;61.40;11.00;;;;;;;8.51;100.00;103670.22;5010943;28;20071;-43
2023/02/04 09:09:33;;;;;;;46.25;10.75;;;;;;;8.50;100.00;103673.00;5011169;28;20076;-43
2023/02/04 09:12:00;;;;;;;54.05;10.95;;;;;;;8.48;100.00;103669.56;5009874;28;20489;-43
2023/02/04 09:14:25;;;;;;;46.93;10.17;;;;;;;8.45;100.00;103665.25;5011731;28;20052;-45
2023/02/04 09:16:51;;;;;;;59.83;11.90;;;;;;;8.43;100.00;103669.84;5011186;28;20293;-43
2023/02/04 09:19:22;;;;;;;44.15;10.15;;;;;;;8.39;100.00;103668.31;5011540;28;20113;-44
2023/02/04 09:21:48;;;;;;;42.45;9.07;;;;;;;8.33;100.00;103674.06;5011231;28;20060;-43
2023/02/04 09:24:13;;;;;;;43.33;10.68;;;;;;;8.37;100.00;103678.25;5010759;28;20027;-43
2023/02/04 09:26:39;;;;;;;45.40;11.05;;;;;;;8.39;100.00;103671.00;5010625;28;20026;-44
2023/02/04 09:29:04;;;;;;;48.80;10.80;;;;;;;8.45;100.00;103678.69;5010881;28;20136;-44
2023/02/04 09:31:29;;;;;;;42.42;10.25;;;;;;;8.50;100.00;103673.00;5010692;28;20034;-43
2023/02/04 09:33:55;;;;;;;36.58;9.57;;;;;;;8.53;100.00;103681.72;5011011;28;20432;-43
2023/02/04 09:36:20;;;;;;;46.83;10.00;;;;;;;8.56;100.00;103678.84;5010751;28;20420;-43
2023/02/04 09:38:45;;;;;;;45.30;10.23;;;;;;;8.59;100.00;103679.63;5010803;28;20037;-44
2023/02/04 09:41:11;;;;;;;55.47;11.32;;;;;;;8.63;100.00;103689.19;5010547;28;20022;-43
2023/02/04 09:43:42;;;;;;;41.50;8.65;;;;;;;8.69;100.00;103688.78;5026200;28;20044;-44
2023/02/04 09:46:17;;;;;;;35.00;9.30;;;;;;;8.72;100.00;103692.13;5010605;28;20065;-43
2023/02/04 09:48:43;;;;;;;40.25;9.35;;;;;;;8.69;100.00;103688.78;5009963;28;20037;-45
2023/02/04 09:51:11;;;;;;;42.97;9.43;;;;;;;8.62;100.00;103687.47;5012302;28;20311;-45
2023/02/04 09:53:37;;;;;;;29.58;5.93;;;;;;;8.64;100.00;103685.56;5013231;28;20033;-43
2023/02/04 09:56:03;;;;;;;31.80;5.25;;;;;;;8.70;100.00;103690.50;5014344;28;20034;-43
2023/02/04 09:58:31;;;;;;;31.33;5.70;;;;;;;8.77;100.00;103694.53;5014470;28;20025;-45
2023/02/04 10:01:15;;;;;;;;;;;;;;;8.80;100.00;103699.69;5013533;28;20026;-43
2023/02/04 10:03:45;;;;;;;21.88;4.25;;;;;;;8.93;100.00;103697.94;5014278;28;19918;-44
2023/02/04 10:06:12;;;;;;;29.05;4.03;;;;;;;8.96;100.00;103697.72;5014607;28;20506;-44
2023/02/04 10:08:38;;;;;;;18.40;3.28;;;;;;;8.88;100.00;103697.38;5013354;28;20057;-44
2023/02/04 10:11:04;;;;;;;19.08;3.58;;;;;;;8.85;100.00;103686.81;5014122;28;20083;-44
2023/02/04 10:13:32;;;;;;;25.30;3.50;;;;;;;8.83;100.00;103679.84;5014648;28;20113;-44
2023/02/04 10:15:58;;;;;;;23.52;4.30;;;;;;;8.81;100.00;103684.44;5014272;28;20025;-43
2023/02/04 10:18:32;;;;;;;15.82;3.30;;;;;;;8.69;100.00;103678.91;5014009;28;20322;-42
2023/02/04 10:21:10;;;;;;;25.67;3.28;;;;;;;8.62;100.00;103687.47;5014171;28;20111;-43
2023/02/04 10:23:36;;;;;;;;;;;;;;;8.65;100.00;103681.88;5013284;28;20056;-43
2023/02/04 10:26:02;;;;;;;21.38;3.50;;;;;;;8.64;100.00;103680.19;5012974;28;19914;-44
2023/02/04 10:28:34;;;;;;;22.35;4.22;;;;;;;8.69;100.00;103683.41;5014000;28;20266;-43
2023/02/04 10:31:00;;;;;;;19.27;2.85;;;;;;;8.64;100.00;103685.56;5020940;28;20496;-43
2023/02/04 10:33:25;;;;;;;23.67;3.20;;;;;;;8.69;100.00;103686.09;5012272;28;20402;-43
2023/02/04 10:35:52;;;;;;;11.25;3.28;;;;;;;8.75;100.00;103689.25;5019397;28;20048;-46
2023/02/04 10:38:18;;;;;;;20.38;3.88;;;;;;;8.72;100.00;103688.59;5026852;28;20087;-43
2023/02/04 10:40:45;;;;;;;26.63;4.53;;;;;;;8.75;100.00;103693.75;5030173;28;20385;-44
2023/02/04 10:43:19;;;;;;;34.80;5.55;;;;;;;8.81;100.00;103696.03;5023106;28;20040;-43
2023/02/04 10:45:56;;;;;;;35.45;7.78;;;;;;;8.82;100.00;103702.25;5010514;28;20191;-43
2023/02/04 10:48:22;;;;;;;33.17;8.70;;;;;;;8.79;100.00;103706.00;5013373;28;20040;-43
2023/02/04 10:50:48;;;;;;;41.22;7.97;;;;;;;8.77;100.00;103713.31;5022661;28;20034;-43
2023/02/04 10:56:16;;;;;;;43.63;8.02;;;;;;;8.55;100.00;103713.81;5025993;28;20057;-44
2023/02/04 10:58:41;;;;;;;42.95;6.45;;;;;;;8.54;100.00;103722.84;5022045;28;20037;-44
2023/02/04 11:01:11;;;;;;;43.10;7.60;;;;;;;8.48;100.00;103721.44;5024304;28;20033;-44
2023/02/04 11:03:37;;;;;;;26.90;5.93;;;;;;;8.46;100.00;103717.13;5023615;28;20430;-44
2023/02/04 11:06:09;;;;;;;35.22;6.18;;;;;;;8.50;100.00;103722.16;5024806;28;20030;-44
2023/02/04 11:08:36;;;;;;;37.30;6.97;;;;;;;8.54;100.00;103715.66;5025283;28;20037;-46
2023/02/04 11:11:07;;;;;;;41.72;6.82;;;;;;;8.52;100.00;103714.88;5025056;28;20214;-44
2023/02/04 11:13:43;;;;;;;33.83;6.30;;;;;;;8.46;100.00;103720.66;5024125;28;20477;-44
2023/02/04 11:16:10;;;;;;;37.53;7.55;;;;;;;8.47;100.00;103718.81;5024042;28;20037;-45